sensor_id;sensor_type;location;lat;lon;timestamp;temperature;humidity
78467;SHT31;67759;51.972;5.650;2023-04-01T00:02:06;11.5;81.5
78467;SHT31;67759;51.972;5.650;2023-04-01T00:04:36;11.5;81.6
78467;SHT31;67759;51.972;5.650;2023-04-01T00:07:05;11.5;81.6
78467;SHT31;67759;51.972;5.650;2023-04-01T00:09:35;11.6;81.5
78467;SHT31;67759;51.972;5.650;2023-04-01T00:12:07;11.6;81.5
78467;SHT31;67759;51.972;5.650;2023-04-01T00:14:37;11.6;81.4
78467;SHT31;67759;51.972;5.650;2023-04-01T00:17:07;11.6;81.3
78467;SHT31;67759;51.972;5.650;2023-04-01T00:19:37;11.6;81.1
78467;SHT31;67759;51.972;5.650;2023-04-01T00:22:06;11.7;80.8
78467;SHT31;67759;51.972;5.650;2023-04-01T00:24:38;11.7;80.8
78467;SHT31;67759;51.972;5.650;2023-04-01T00:27:08;11.7;80.7
78467;SHT31;67759;51.972;5.650;2023-04-01T00:29:37;11.6;80.7
78467;SHT31;67759;51.972;5.650;2023-04-01T00:32:07;11.6;80.8
78467;SHT31;67759;51.972;5.650;2023-04-01T00:34:37;11.6;80.9
78467;SHT31;67759;51.972;5.650;2023-04-01T00:37:08;11.6;81.2
78467;SHT31;67759;51.972;5.650;2023-04-01T00:39:40;11.6;80.9
78467;SHT31;67759;51.972;5.650;2023-04-01T00:42:10;11.6;80.9
78467;SHT31;67759;51.972;5.650;2023-04-01T00:44:45;11.6;81.0
78467;SHT31;67759;51.972;5.650;2023-04-01T00:47:17;11.7;81.0
78467;SHT31;67759;51.972;5.650;2023-04-01T00:49:51;11.7;80.7
78467;SHT31;67759;51.972;5.650;2023-04-01T00:52:23;11.7;80.9
78467;SHT31;67759;51.972;5.650;2023-04-01T00:54:58;11.6;81.2
78467;SHT31;67759;51.972;5.650;2023-04-01T00:57:32;11.6;81.2
78467;SHT31;67759;51.972;5.650;2023-04-01T01:00:08;11.6;81.3
78467;SHT31;67759;51.972;5.650;2023-04-01T01:02:44;11.6;81.4
78467;SHT31;67759;51.972;5.650;2023-04-01T01:05:16;11.6;81.5
78467;SHT31;67759;51.972;5.650;2023-04-01T01:07:55;11.6;81.7
78467;SHT31;67759;51.972;5.650;2023-04-01T01:10:32;11.6;81.6
78467;SHT31;67759;51.972;5.650;2023-04-01T01:13:10;11.6;81.5
78467;SHT31;67759;51.972;5.650;2023-04-01T01:15:46;11.6;81.7
78467;SHT31;67759;51.972;5.650;2023-04-01T01:18:27;11.6;81.8
78467;SHT31;67759;51.972;5.650;2023-04-01T01:21:30;11.6;81.5
78467;SHT31;67759;51.972;5.650;2023-04-01T01:24:28;11.6;81.4
78467;SHT31;67759;51.972;5.650;2023-04-01T01:27:02;11.6;81.2
78467;SHT31;67759;51.972;5.650;2023-04-01T01:29:39;11.6;81.1
78467;SHT31;67759;51.972;5.650;2023-04-01T01:32:24;11.6;80.4
78467;SHT31;67759;51.972;5.650;2023-04-01T01:35:05;11.6;80.2
78467;SHT31;67759;51.972;5.650;2023-04-01T01:37:38;11.6;79.9
78467;SHT31;67759;51.972;5.650;2023-04-01T01:40:13;11.5;80.0
78467;SHT31;67759;51.972;5.650;2023-04-01T01:42:49;11.5;80.0
78467;SHT31;67759;51.972;5.650;2023-04-01T01:45:21;11.5;79.9
78467;SHT31;67759;51.972;5.650;2023-04-01T01:47:57;11.5;80.1
78467;SHT31;67759;51.972;5.650;2023-04-01T01:50:28;11.4;80.1
78467;SHT31;67759;51.972;5.650;2023-04-01T01:53:03;11.4;80.1
78467;SHT31;67759;51.972;5.650;2023-04-01T01:55:36;11.4;80.0
78467;SHT31;67759;51.972;5.650;2023-04-01T01:58:11;11.4;80.0
78467;SHT31;67759;51.972;5.650;2023-04-01T02:00:46;11.4;79.9
78467;SHT31;67759;51.972;5.650;2023-04-01T02:03:21;11.3;80.3
78467;SHT31;67759;51.972;5.650;2023-04-01T02:05:55;11.3;80.3
78467;SHT31;67759;51.972;5.650;2023-04-01T02:08:32;11.3;80.3
78467;SHT31;67759;51.972;5.650;2023-04-01T02:11:06;11.4;80.3
78467;SHT31;67759;51.972;5.650;2023-04-01T02:13:42;11.4;80.5
78467;SHT31;67759;51.972;5.650;2023-04-01T02:16:16;11.4;80.4
78467;SHT31;67759;51.972;5.650;2023-04-01T02:18:50;11.4;80.3
78467;SHT31;67759;51.972;5.650;2023-04-01T02:21:27;11.4;80.4
78467;SHT31;67759;51.972;5.650;2023-04-01T02:24:00;11.4;80.3
78467;SHT31;67759;51.972;5.650;2023-04-01T02:26:31;11.4;80.3
78467;SHT31;67759;51.972;5.650;2023-04-01T02:29:03;11.4;80.5
78467;SHT31;67759;51.972;5.650;2023-04-01T02:31:36;11.3;80.6
78467;SHT31;67759;51.972;5.650;2023-04-01T02:34:06;11.3;80.8
78467;SHT31;67759;51.972;5.650;2023-04-01T02:36:38;11.3;80.8
78467;SHT31;67759;51.972;5.650;2023-04-01T02:39:08;11.3;80.9
78467;SHT31;67759;51.972;5.650;2023-04-01T02:41:41;11.3;80.8
78467;SHT31;67759;51.972;5.650;2023-04-01T02:44:13;11.3;80.9
78467;SHT31;67759;51.972;5.650;2023-04-01T02:46:44;11.3;80.8
78467;SHT31;67759;51.972;5.650;2023-04-01T02:49:13;11.3;80.9
78467;SHT31;67759;51.972;5.650;2023-04-01T02:51:43;11.3;81.0
78467;SHT31;67759;51.972;5.650;2023-04-01T02:54:13;11.3;81.1
78467;SHT31;67759;51.972;5.650;2023-04-01T02:56:46;11.3;81.0
78467;SHT31;67759;51.972;5.650;2023-04-01T02:59:17;11.3;80.7
78467;SHT31;67759;51.972;5.650;2023-04-01T03:01:49;11.3;80.8
78467;SHT31;67759;51.972;5.650;2023-04-01T03:04:20;11.3;80.9
78467;SHT31;67759;51.972;5.650;2023-04-01T03:06:51;11.2;80.6
78467;SHT31;67759;51.972;5.650;2023-04-01T03:09:26;11.2;80.7
78467;SHT31;67759;51.972;5.650;2023-04-01T03:11:57;11.2;80.5
78467;SHT31;67759;51.972;5.650;2023-04-01T03:14:27;11.2;80.8
78467;SHT31;67759;51.972;5.650;2023-04-01T03:17:02;11.2;80.7
78467;SHT31;67759;51.972;5.650;2023-04-01T03:19:35;11.2;80.6
78467;SHT31;67759;51.972;5.650;2023-04-01T03:22:05;11.2;80.5
78467;SHT31;67759;51.972;5.650;2023-04-01T03:24:35;11.2;80.4
78467;SHT31;67759;51.972;5.650;2023-04-01T03:27:06;11.2;80.6
78467;SHT31;67759;51.972;5.650;2023-04-01T03:29:39;11.2;80.6
78467;SHT31;67759;51.972;5.650;2023-04-01T03:32:11;11.2;80.8
78467;SHT31;67759;51.972;5.650;2023-04-01T03:34:43;11.2;80.7
78467;SHT31;67759;51.972;5.650;2023-04-01T03:37:15;11.1;80.8
78467;SHT31;67759;51.972;5.650;2023-04-01T03:39:47;11.1;80.8
78467;SHT31;67759;51.972;5.650;2023-04-01T03:42:19;11.1;80.6
78467;SHT31;67759;51.972;5.650;2023-04-01T03:44:50;11.1;80.8
78467;SHT31;67759;51.972;5.650;2023-04-01T03:47:25;11.1;80.8
78467;SHT31;67759;51.972;5.650;2023-04-01T03:49:56;11.1;80.8
78467;SHT31;67759;51.972;5.650;2023-04-01T03:52:26;11.1;80.9
78467;SHT31;67759;51.972;5.650;2023-04-01T03:54:55;11.1;81.0
78467;SHT31;67759;51.972;5.650;2023-04-01T03:57:25;11.1;80.9
78467;SHT31;67759;51.972;5.650;2023-04-01T03:59:55;11.0;81.1
78467;SHT31;67759;51.972;5.650;2023-04-01T04:02:25;11.0;81.3
78467;SHT31;67759;51.972;5.650;2023-04-01T04:04:55;11.0;81.3
78467;SHT31;67759;51.972;5.650;2023-04-01T04:07:28;11.0;81.5
78467;SHT31;67759;51.972;5.650;2023-04-01T04:09:59;11.0;81.5
78467;SHT31;67759;51.972;5.650;2023-04-01T04:12:28;11.0;81.5
78467;SHT31;67759;51.972;5.650;2023-04-01T04:14:59;11.1;81.5
78467;SHT31;67759;51.972;5.650;2023-04-01T04:17:28;11.1;81.3
78467;SHT31;67759;51.972;5.650;2023-04-01T04:19:58;11.1;81.4
78467;SHT31;67759;51.972;5.650;2023-04-01T04:22:28;11.1;81.4
78467;SHT31;67759;51.972;5.650;2023-04-01T04:24:58;11.1;81.2
78467;SHT31;67759;51.972;5.650;2023-04-01T04:27:28;11.1;81.4
78467;SHT31;67759;51.972;5.650;2023-04-01T04:29:57;11.1;81.5
78467;SHT31;67759;51.972;5.650;2023-04-01T04:32:28;11.1;81.7
78467;SHT31;67759;51.972;5.650;2023-04-01T04:34:58;11.0;81.8
78467;SHT31;67759;51.972;5.650;2023-04-01T04:37:28;11.0;81.8
78467;SHT31;67759;51.972;5.650;2023-04-01T04:39:59;11.0;81.8
78467;SHT31;67759;51.972;5.650;2023-04-01T04:42:30;11.0;81.9
78467;SHT31;67759;51.972;5.650;2023-04-01T04:45:00;11.0;82.0
78467;SHT31;67759;51.972;5.650;2023-04-01T04:47:30;11.0;81.9
78467;SHT31;67759;51.972;5.650;2023-04-01T04:50:01;11.0;82.0
78467;SHT31;67759;51.972;5.650;2023-04-01T04:52:32;11.0;82.3
78467;SHT31;67759;51.972;5.650;2023-04-01T04:55:03;11.0;82.3
78467;SHT31;67759;51.972;5.650;2023-04-01T04:57:33;11.0;82.2
78467;SHT31;67759;51.972;5.650;2023-04-01T05:00:03;11.0;82.3
78467;SHT31;67759;51.972;5.650;2023-04-01T05:02:33;11.0;82.5
78467;SHT31;67759;51.972;5.650;2023-04-01T05:05:03;11.0;82.8
78467;SHT31;67759;51.972;5.650;2023-04-01T05:07:33;11.0;82.9
78467;SHT31;67759;51.972;5.650;2023-04-01T05:10:05;11.0;82.9
78467;SHT31;67759;51.972;5.650;2023-04-01T05:12:34;11.0;82.6
78467;SHT31;67759;51.972;5.650;2023-04-01T05:15:07;11.0;82.5
78467;SHT31;67759;51.972;5.650;2023-04-01T05:17:37;11.0;82.6
78467;SHT31;67759;51.972;5.650;2023-04-01T05:20:08;11.0;82.5
78467;SHT31;67759;51.972;5.650;2023-04-01T05:22:38;11.0;83.0
78467;SHT31;67759;51.972;5.650;2023-04-01T05:25:07;11.0;83.0
78467;SHT31;67759;51.972;5.650;2023-04-01T05:27:37;11.0;82.9
78467;SHT31;67759;51.972;5.650;2023-04-01T05:30:10;11.0;82.8
78467;SHT31;67759;51.972;5.650;2023-04-01T05:32:40;11.1;82.8
78467;SHT31;67759;51.972;5.650;2023-04-01T05:35:10;11.1;83.0
78467;SHT31;67759;51.972;5.650;2023-04-01T05:37:42;11.1;82.5
78467;SHT31;67759;51.972;5.650;2023-04-01T05:40:12;11.1;82.8
78467;SHT31;67759;51.972;5.650;2023-04-01T05:42:43;11.1;83.1
78467;SHT31;67759;51.972;5.650;2023-04-01T05:45:14;11.1;83.2
78467;SHT31;67759;51.972;5.650;2023-04-01T05:47:44;11.1;83.1
78467;SHT31;67759;51.972;5.650;2023-04-01T05:50:14;11.1;83.0
78467;SHT31;67759;51.972;5.650;2023-04-01T05:52:44;11.2;83.1
78467;SHT31;67759;51.972;5.650;2023-04-01T05:55:14;11.2;82.9
78467;SHT31;67759;51.972;5.650;2023-04-01T05:57:44;11.2;83.1
78467;SHT31;67759;51.972;5.650;2023-04-01T06:00:16;11.2;82.9
78467;SHT31;67759;51.972;5.650;2023-04-01T06:02:47;11.2;83.1
78467;SHT31;67759;51.972;5.650;2023-04-01T06:05:19;11.2;83.2
78467;SHT31;67759;51.972;5.650;2023-04-01T06:07:51;11.2;83.3
78467;SHT31;67759;51.972;5.650;2023-04-01T06:10:35;11.3;82.9
78467;SHT31;67759;51.972;5.650;2023-04-01T06:13:10;11.3;82.8
78467;SHT31;67759;51.972;5.650;2023-04-01T06:15:51;11.3;82.5
78467;SHT31;67759;51.972;5.650;2023-04-01T06:18:50;11.3;82.6
78467;SHT31;67759;51.972;5.650;2023-04-01T06:21:36;11.3;83.2
78467;SHT31;67759;51.972;5.650;2023-04-01T06:24:40;11.3;83.3
78467;SHT31;67759;51.972;5.650;2023-04-01T06:27:23;11.3;83.4
78467;SHT31;67759;51.972;5.650;2023-04-01T06:30:10;11.3;83.3
78467;SHT31;67759;51.972;5.650;2023-04-01T06:32:59;11.3;83.6
78467;SHT31;67759;51.972;5.650;2023-04-01T06:35:48;11.3;83.2
78467;SHT31;67759;51.972;5.650;2023-04-01T06:38:32;11.3;83.4
78467;SHT31;67759;51.972;5.650;2023-04-01T06:41:54;11.3;83.0
78467;SHT31;67759;51.972;5.650;2023-04-01T06:44:38;11.3;83.4
78467;SHT31;67759;51.972;5.650;2023-04-01T06:47:25;11.3;83.2
78467;SHT31;67759;51.972;5.650;2023-04-01T06:50:06;11.3;82.8
78467;SHT31;67759;51.972;5.650;2023-04-01T06:52:48;11.3;83.5
78467;SHT31;67759;51.972;5.650;2023-04-01T06:55:26;11.3;82.8
78467;SHT31;67759;51.972;5.650;2023-04-01T06:57:59;11.4;83.1
78467;SHT31;67759;51.972;5.650;2023-04-01T07:00:33;11.4;82.6
78467;SHT31;67759;51.972;5.650;2023-04-01T07:03:16;11.4;82.4
78467;SHT31;67759;51.972;5.650;2023-04-01T07:05:48;11.4;82.8
78467;SHT31;67759;51.972;5.650;2023-04-01T07:08:23;11.4;82.9
78467;SHT31;67759;51.972;5.650;2023-04-01T07:10:59;11.4;82.8
78467;SHT31;67759;51.972;5.650;2023-04-01T07:13:36;11.4;82.9
78467;SHT31;67759;51.972;5.650;2023-04-01T07:16:14;11.4;82.7
78467;SHT31;67759;51.972;5.650;2023-04-01T07:18:49;11.4;82.7
78467;SHT31;67759;51.972;5.650;2023-04-01T07:21:29;11.5;82.7
78467;SHT31;67759;51.972;5.650;2023-04-01T07:24:06;11.5;82.7
78467;SHT31;67759;51.972;5.650;2023-04-01T07:26:39;11.5;82.4
78467;SHT31;67759;51.972;5.650;2023-04-01T07:29:12;11.5;82.5
78467;SHT31;67759;51.972;5.650;2023-04-01T07:32:38;11.5;83.1
78467;SHT31;67759;51.972;5.650;2023-04-01T07:35:20;11.5;82.5
78467;SHT31;67759;51.972;5.650;2023-04-01T07:38:01;11.5;83.0
78467;SHT31;67759;51.972;5.650;2023-04-01T07:40:42;11.5;82.7
78467;SHT31;67759;51.972;5.650;2023-04-01T07:43:29;11.5;82.8
78467;SHT31;67759;51.972;5.650;2023-04-01T07:46:10;11.5;82.7
78467;SHT31;67759;51.972;5.650;2023-04-01T07:48:50;11.5;82.3
78467;SHT31;67759;51.972;5.650;2023-04-01T07:51:32;11.5;83.0
78467;SHT31;67759;51.972;5.650;2023-04-01T07:54:11;11.6;83.2
78467;SHT31;67759;51.972;5.650;2023-04-01T07:56:51;11.6;83.3
78467;SHT31;67759;51.972;5.650;2023-04-01T07:59:34;11.6;83.0
78467;SHT31;67759;51.972;5.650;2023-04-01T08:02:19;11.7;83.2
78467;SHT31;67759;51.972;5.650;2023-04-01T08:04:59;11.8;82.7
78467;SHT31;67759;51.972;5.650;2023-04-01T08:07:39;11.9;81.2
78467;SHT31;67759;51.972;5.650;2023-04-01T08:10:15;12.0;80.9
78467;SHT31;67759;51.972;5.650;2023-04-01T08:12:58;12.0;80.3
78467;SHT31;67759;51.972;5.650;2023-04-01T08:15:40;12.0;80.6
78467;SHT31;67759;51.972;5.650;2023-04-01T08:18:22;12.0;80.5
78467;SHT31;67759;51.972;5.650;2023-04-01T08:20:59;12.0;80.9
78467;SHT31;67759;51.972;5.650;2023-04-01T08:23:33;12.0;80.8
78467;SHT31;67759;51.972;5.650;2023-04-01T08:26:09;12.0;81.2
78467;SHT31;67759;51.972;5.650;2023-04-01T08:28:43;11.9;81.6
78467;SHT31;67759;51.972;5.650;2023-04-01T08:31:16;12.0;81.5
78467;SHT31;67759;51.972;5.650;2023-04-01T08:33:49;12.0;81.7
78467;SHT31;67759;51.972;5.650;2023-04-01T08:36:26;12.0;81.9
78467;SHT31;67759;51.972;5.650;2023-04-01T08:39:03;12.0;82.2
78467;SHT31;67759;51.972;5.650;2023-04-01T08:42:03;12.0;81.5
78467;SHT31;67759;51.972;5.650;2023-04-01T08:45:00;12.0;81.9
78467;SHT31;67759;51.972;5.650;2023-04-01T08:47:59;12.0;82.3
78467;SHT31;67759;51.972;5.650;2023-04-01T08:50:53;12.0;82.1
78467;SHT31;67759;51.972;5.650;2023-04-01T08:53:38;12.0;81.7
78467;SHT31;67759;51.972;5.650;2023-04-01T08:56:17;12.0;82.1
78467;SHT31;67759;51.972;5.650;2023-04-01T08:59:02;12.0;81.9
78467;SHT31;67759;51.972;5.650;2023-04-01T09:01:58;12.0;82.4
78467;SHT31;67759;51.972;5.650;2023-04-01T09:05:28;12.0;82.3
78467;SHT31;67759;51.972;5.650;2023-04-01T09:08:15;12.0;81.6
78467;SHT31;67759;51.972;5.650;2023-04-01T09:10:54;12.0;81.5
78467;SHT31;67759;51.972;5.650;2023-04-01T09:13:45;12.0;82.2
78467;SHT31;67759;51.972;5.650;2023-04-01T09:16:24;12.0;81.9
78467;SHT31;67759;51.972;5.650;2023-04-01T09:19:17;12.0;82.1
78467;SHT31;67759;51.972;5.650;2023-04-01T09:22:10;12.0;82.0
78467;SHT31;67759;51.972;5.650;2023-04-01T09:25:05;12.0;83.3
78467;SHT31;67759;51.972;5.650;2023-04-01T09:27:47;12.1;82.3
78467;SHT31;67759;51.972;5.650;2023-04-01T09:30:57;12.1;82.6
78467;SHT31;67759;51.972;5.650;2023-04-01T09:34:30;12.2;81.9
78467;SHT31;67759;51.972;5.650;2023-04-01T09:37:20;12.2;81.6
78467;SHT31;67759;51.972;5.650;2023-04-01T09:40:08;12.3;82.0
78467;SHT31;67759;51.972;5.650;2023-04-01T09:42:45;12.3;81.4
78467;SHT31;67759;51.972;5.650;2023-04-01T09:45:34;12.4;80.4
78467;SHT31;67759;51.972;5.650;2023-04-01T09:48:14;12.4;81.1
78467;SHT31;67759;51.972;5.650;2023-04-01T09:50:55;12.4;81.4
78467;SHT31;67759;51.972;5.650;2023-04-01T09:53:40;12.5;81.4
78467;SHT31;67759;51.972;5.650;2023-04-01T09:56:57;12.5;81.0
78467;SHT31;67759;51.972;5.650;2023-04-01T09:59:58;12.6;80.3
78467;SHT31;67759;51.972;5.650;2023-04-01T10:02:57;12.7;80.6
78467;SHT31;67759;51.972;5.650;2023-04-01T10:05:49;12.8;79.4
78467;SHT31;67759;51.972;5.650;2023-04-01T10:09:24;12.9;80.3
78467;SHT31;67759;51.972;5.650;2023-04-01T10:13:38;13.1;79.2
78467;SHT31;67759;51.972;5.650;2023-04-01T10:16:32;13.2;79.5
78467;SHT31;67759;51.972;5.650;2023-04-01T10:23:42;13.4;77.6
78467;SHT31;67759;51.972;5.650;2023-04-01T10:34:45;13.7;78.1
78467;SHT31;67759;51.972;5.650;2023-04-01T10:37:39;13.9;77.1
78467;SHT31;67759;51.972;5.650;2023-04-01T10:40:30;14.1;76.2
78467;SHT31;67759;51.972;5.650;2023-04-01T10:47:00;14.5;73.5
78467;SHT31;67759;51.972;5.650;2023-04-01T10:49:46;14.6;73.5
78467;SHT31;67759;51.972;5.650;2023-04-01T10:52:57;14.6;73.3
78467;SHT31;67759;51.972;5.650;2023-04-01T10:57:07;14.7;72.3
78467;SHT31;67759;51.972;5.650;2023-04-01T11:01:58;14.8;72.1
78467;SHT31;67759;51.972;5.650;2023-04-01T11:05:06;15.0;73.0
78467;SHT31;67759;51.972;5.650;2023-04-01T11:08:01;15.1;72.6
78467;SHT31;67759;51.972;5.650;2023-04-01T11:11:17;15.2;71.4
78467;SHT31;67759;51.972;5.650;2023-04-01T11:17:11;15.2;71.7
78467;SHT31;67759;51.972;5.650;2023-04-01T11:20:42;15.1;70.7
78467;SHT31;67759;51.972;5.650;2023-04-01T11:24:56;15.1;70.8
78467;SHT31;67759;51.972;5.650;2023-04-01T11:27:46;15.0;72.4
78467;SHT31;67759;51.972;5.650;2023-04-01T11:30:25;15.0;71.9
78467;SHT31;67759;51.972;5.650;2023-04-01T11:33:02;15.0;71.8
78467;SHT31;67759;51.972;5.650;2023-04-01T11:35:56;15.1;71.7
78467;SHT31;67759;51.972;5.650;2023-04-01T11:38:44;15.1;71.2
78467;SHT31;67759;51.972;5.650;2023-04-01T11:41:30;15.1;71.8
78467;SHT31;67759;51.972;5.650;2023-04-01T11:44:25;15.2;70.9
78467;SHT31;67759;51.972;5.650;2023-04-01T11:47:22;15.2;71.4
78467;SHT31;67759;51.972;5.650;2023-04-01T11:50:14;15.3;70.2
78467;SHT31;67759;51.972;5.650;2023-04-01T11:53:08;15.4;69.1
78467;SHT31;67759;51.972;5.650;2023-04-01T11:55:53;15.4;69.4
78467;SHT31;67759;51.972;5.650;2023-04-01T11:58:54;15.4;70.3
78467;SHT31;67759;51.972;5.650;2023-04-01T12:01:49;15.3;71.2
78467;SHT31;67759;51.972;5.650;2023-04-01T12:04:36;15.3;72.0
78467;SHT31;67759;51.972;5.650;2023-04-01T12:07:17;15.2;71.3
78467;SHT31;67759;51.972;5.650;2023-04-01T12:10:01;15.2;71.2
78467;SHT31;67759;51.972;5.650;2023-04-01T12:12:42;15.1;71.5
78467;SHT31;67759;51.972;5.650;2023-04-01T12:15:26;15.1;71.3
78467;SHT31;67759;51.972;5.650;2023-04-01T12:18:09;15.1;71.4
78467;SHT31;67759;51.972;5.650;2023-04-01T12:20:49;15.1;71.3
78467;SHT31;67759;51.972;5.650;2023-04-01T12:23:41;15.1;71.3
78467;SHT31;67759;51.972;5.650;2023-04-01T12:26:35;15.1;71.8
78467;SHT31;67759;51.972;5.650;2023-04-01T12:29:39;15.1;70.5
78467;SHT31;67759;51.972;5.650;2023-04-01T12:32:23;15.1;69.6
78467;SHT31;67759;51.972;5.650;2023-04-01T12:35:08;15.1;71.2
78467;SHT31;67759;51.972;5.650;2023-04-01T12:37:52;15.1;71.6
78467;SHT31;67759;51.972;5.650;2023-04-01T12:40:33;15.1;70.7
78467;SHT31;67759;51.972;5.650;2023-04-01T12:43:21;15.0;71.8
78467;SHT31;67759;51.972;5.650;2023-04-01T12:45:59;15.0;71.6
78467;SHT31;67759;51.972;5.650;2023-04-01T12:48:53;15.0;71.4
78467;SHT31;67759;51.972;5.650;2023-04-01T12:52:57;15.0;70.4
78467;SHT31;67759;51.972;5.650;2023-04-01T12:55:43;15.0;71.5
78467;SHT31;67759;51.972;5.650;2023-04-01T12:58:40;15.0;72.1
78467;SHT31;67759;51.972;5.650;2023-04-01T13:02:13;15.1;71.1
78467;SHT31;67759;51.972;5.650;2023-04-01T13:05:12;15.1;70.4
78467;SHT31;67759;51.972;5.650;2023-04-01T13:07:56;15.2;69.8
78467;SHT31;67759;51.972;5.650;2023-04-01T13:10:41;15.2;70.9
78467;SHT31;67759;51.972;5.650;2023-04-01T13:13:43;15.2;70.7
78467;SHT31;67759;51.972;5.650;2023-04-01T13:16:20;15.3;69.8
78467;SHT31;67759;51.972;5.650;2023-04-01T13:19:00;15.3;69.0
78467;SHT31;67759;51.972;5.650;2023-04-01T13:21:46;15.2;69.6
78467;SHT31;67759;51.972;5.650;2023-04-01T13:24:36;15.2;69.7
78467;SHT31;67759;51.972;5.650;2023-04-01T13:27:16;15.2;70.3
78467;SHT31;67759;51.972;5.650;2023-04-01T13:30:02;15.1;71.3
78467;SHT31;67759;51.972;5.650;2023-04-01T13:32:43;14.9;71.7
78467;SHT31;67759;51.972;5.650;2023-04-01T13:35:28;14.7;72.7
78467;SHT31;67759;51.972;5.650;2023-04-01T13:38:32;14.5;73.8
78467;SHT31;67759;51.972;5.650;2023-04-01T13:41:16;14.3;74.4
78467;SHT31;67759;51.972;5.650;2023-04-01T13:43:55;14.2;75.5
78467;SHT31;67759;51.972;5.650;2023-04-01T13:46:44;14.1;75.9
78467;SHT31;67759;51.972;5.650;2023-04-01T13:49:36;14.0;76.0
78467;SHT31;67759;51.972;5.650;2023-04-01T13:52:20;13.9;76.5
78467;SHT31;67759;51.972;5.650;2023-04-01T13:55:11;13.9;77.1
78467;SHT31;67759;51.972;5.650;2023-04-01T13:58:42;13.9;77.7
78467;SHT31;67759;51.972;5.650;2023-04-01T14:01:23;13.8;76.7
78467;SHT31;67759;51.972;5.650;2023-04-01T14:04:08;13.8;77.6
78467;SHT31;67759;51.972;5.650;2023-04-01T14:06:52;13.8;77.2
78467;SHT31;67759;51.972;5.650;2023-04-01T14:09:58;13.7;77.4
78467;SHT31;67759;51.972;5.650;2023-04-01T14:12:41;13.7;78.0
78467;SHT31;67759;51.972;5.650;2023-04-01T14:15:35;13.7;79.3
78467;SHT31;67759;51.972;5.650;2023-04-01T14:19:33;13.7;79.0
78467;SHT31;67759;51.972;5.650;2023-04-01T14:22:17;13.7;78.9
78467;SHT31;67759;51.972;5.650;2023-04-01T14:25:20;13.7;78.8
78467;SHT31;67759;51.972;5.650;2023-04-01T14:27:58;13.7;77.6
78467;SHT31;67759;51.972;5.650;2023-04-01T14:30:41;13.7;77.6
78467;SHT31;67759;51.972;5.650;2023-04-01T14:33:23;13.7;77.6
78467;SHT31;67759;51.972;5.650;2023-04-01T14:36:18;13.7;77.5
78467;SHT31;67759;51.972;5.650;2023-04-01T14:38:51;13.7;77.7
78467;SHT31;67759;51.972;5.650;2023-04-01T14:41:32;13.6;78.0
78467;SHT31;67759;51.972;5.650;2023-04-01T14:44:27;13.6;78.3
78467;SHT31;67759;51.972;5.650;2023-04-01T14:47:26;13.6;78.0
78467;SHT31;67759;51.972;5.650;2023-04-01T14:50:06;13.6;78.0
78467;SHT31;67759;51.972;5.650;2023-04-01T14:52:41;13.6;77.8
78467;SHT31;67759;51.972;5.650;2023-04-01T14:55:31;13.6;78.0
78467;SHT31;67759;51.972;5.650;2023-04-01T14:58:10;13.6;78.7
78467;SHT31;67759;51.972;5.650;2023-04-01T15:01:23;13.6;78.3
78467;SHT31;67759;51.972;5.650;2023-04-01T15:04:06;13.6;78.8
78467;SHT31;67759;51.972;5.650;2023-04-01T15:06:55;13.6;78.6
78467;SHT31;67759;51.972;5.650;2023-04-01T15:09:37;13.7;78.4
78467;SHT31;67759;51.972;5.650;2023-04-01T15:12:18;13.7;78.2
78467;SHT31;67759;51.972;5.650;2023-04-01T15:15:09;13.7;78.4
78467;SHT31;67759;51.972;5.650;2023-04-01T15:17:55;13.7;77.8
78467;SHT31;67759;51.972;5.650;2023-04-01T15:20:43;13.7;78.0
78467;SHT31;67759;51.972;5.650;2023-04-01T15:23:22;13.7;78.0
78467;SHT31;67759;51.972;5.650;2023-04-01T15:26:25;13.7;77.7
78467;SHT31;67759;51.972;5.650;2023-04-01T15:29:16;13.7;77.1
78467;SHT31;67759;51.972;5.650;2023-04-01T15:31:50;13.7;77.1
78467;SHT31;67759;51.972;5.650;2023-04-01T15:34:36;13.7;77.9
78467;SHT31;67759;51.972;5.650;2023-04-01T15:37:16;13.6;77.9
78467;SHT31;67759;51.972;5.650;2023-04-01T15:40:00;13.6;76.6
78467;SHT31;67759;51.972;5.650;2023-04-01T15:42:47;13.5;76.2
78467;SHT31;67759;51.972;5.650;2023-04-01T15:45:30;13.4;76.8
78467;SHT31;67759;51.972;5.650;2023-04-01T15:48:17;13.2;78.0
78467;SHT31;67759;51.972;5.650;2023-04-01T15:51:23;13.2;78.8
78467;SHT31;67759;51.972;5.650;2023-04-01T15:54:24;13.1;79.3
78467;SHT31;67759;51.972;5.650;2023-04-01T15:57:08;13.1;79.4
78467;SHT31;67759;51.972;5.650;2023-04-01T16:00:02;13.1;78.8
78467;SHT31;67759;51.972;5.650;2023-04-01T16:02:43;13.1;77.5
78467;SHT31;67759;51.972;5.650;2023-04-01T16:05:24;13.0;78.0
78467;SHT31;67759;51.972;5.650;2023-04-01T16:08:11;12.9;78.9
78467;SHT31;67759;51.972;5.650;2023-04-01T16:10:59;12.8;78.6
78467;SHT31;67759;51.972;5.650;2023-04-01T16:13:44;12.8;79.5
78467;SHT31;67759;51.972;5.650;2023-04-01T16:16:28;12.8;79.0
78467;SHT31;67759;51.972;5.650;2023-04-01T16:19:24;12.8;79.6
78467;SHT31;67759;51.972;5.650;2023-04-01T16:22:01;12.8;78.2
78467;SHT31;67759;51.972;5.650;2023-04-01T16:24:39;12.7;77.9
78467;SHT31;67759;51.972;5.650;2023-04-01T16:27:18;12.7;77.4
78467;SHT31;67759;51.972;5.650;2023-04-01T16:29:56;12.6;78.7
78467;SHT31;67759;51.972;5.650;2023-04-01T16:32:36;12.6;79.2
78467;SHT31;67759;51.972;5.650;2023-04-01T16:35:25;12.6;79.0
78467;SHT31;67759;51.972;5.650;2023-04-01T16:38:09;12.6;79.4
78467;SHT31;67759;51.972;5.650;2023-04-01T16:40:47;12.6;78.3
78467;SHT31;67759;51.972;5.650;2023-04-01T16:43:25;12.6;78.5
78467;SHT31;67759;51.972;5.650;2023-04-01T16:46:48;12.6;79.0
78467;SHT31;67759;51.972;5.650;2023-04-01T16:49:39;12.6;78.6
78467;SHT31;67759;51.972;5.650;2023-04-01T16:52:48;12.6;77.9
78467;SHT31;67759;51.972;5.650;2023-04-01T16:55:15;12.6;78.7
78467;SHT31;67759;51.972;5.650;2023-04-01T16:57:51;12.6;77.6
78467;SHT31;67759;51.972;5.650;2023-04-01T17:00:27;12.6;77.9
78467;SHT31;67759;51.972;5.650;2023-04-01T17:03:08;12.6;78.1
78467;SHT31;67759;51.972;5.650;2023-04-01T17:05:55;12.5;77.6
78467;SHT31;67759;51.972;5.650;2023-04-01T17:08:42;12.5;77.2
78467;SHT31;67759;51.972;5.650;2023-04-01T17:11:19;12.5;77.1
78467;SHT31;67759;51.972;5.650;2023-04-01T17:14:02;12.4;76.9
78467;SHT31;67759;51.972;5.650;2023-04-01T17:17:08;12.4;77.3
78467;SHT31;67759;51.972;5.650;2023-04-01T17:19:49;12.4;77.2
78467;SHT31;67759;51.972;5.650;2023-04-01T17:22:29;12.4;77.2
78467;SHT31;67759;51.972;5.650;2023-04-01T17:25:16;12.3;77.2
78467;SHT31;67759;51.972;5.650;2023-04-01T17:27:52;12.3;77.0
78467;SHT31;67759;51.972;5.650;2023-04-01T17:30:33;12.3;76.7
78467;SHT31;67759;51.972;5.650;2023-04-01T17:33:37;12.2;76.4
78467;SHT31;67759;51.972;5.650;2023-04-01T17:36:18;12.2;76.8
78467;SHT31;67759;51.972;5.650;2023-04-01T17:38:59;12.2;76.2
78467;SHT31;67759;51.972;5.650;2023-04-01T17:41:39;12.1;76.7
78467;SHT31;67759;51.972;5.650;2023-04-01T17:44:28;12.1;76.8
78467;SHT31;67759;51.972;5.650;2023-04-01T17:47:39;12.1;76.3
78467;SHT31;67759;51.972;5.650;2023-04-01T17:50:23;12.0;77.1
78467;SHT31;67759;51.972;5.650;2023-04-01T17:53:06;12.0;77.0
78467;SHT31;67759;51.972;5.650;2023-04-01T17:55:52;12.0;76.5
78467;SHT31;67759;51.972;5.650;2023-04-01T17:58:29;12.0;76.5
78467;SHT31;67759;51.972;5.650;2023-04-01T18:01:14;11.9;76.8
78467;SHT31;67759;51.972;5.650;2023-04-01T18:03:56;11.9;77.0
78467;SHT31;67759;51.972;5.650;2023-04-01T18:06:34;11.9;77.1